createdAt,value
2019-05-05T00:01:22.506Z,5.37
2019-05-05T00:03:58.976Z,4.73
2019-05-05T00:06:28.105Z,4.17
2019-05-05T00:08:57.263Z,5.17
2019-05-05T00:11:36.506Z,3.27
2019-05-05T00:14:11.377Z,4.53
2019-05-05T00:16:54.964Z,3.97
2019-05-05T00:19:32.454Z,3.17
2019-05-05T00:21:55.163Z,5.03
2019-05-05T00:24:24.476Z,5.80
2019-05-05T00:26:55.267Z,4.70
2019-05-05T00:29:25.379Z,3.43
2019-05-05T00:31:54.832Z,5.17
2019-05-05T00:34:24.480Z,5.17
2019-05-05T00:36:55.213Z,6.40
2019-05-05T00:39:25.494Z,3.87
2019-05-05T00:41:55.512Z,10.53
2019-05-05T00:44:24.851Z,6.70
2019-05-05T00:47:15.958Z,5.00
2019-05-05T00:49:49.280Z,6.80
2019-05-05T00:52:17.390Z,5.43
2019-05-05T00:54:46.268Z,6.73
2019-05-05T00:57:15.098Z,4.63
2019-05-05T00:59:45.275Z,4.03
2019-05-05T01:02:27.009Z,3.07
2019-05-05T01:05:06.048Z,5.47
2019-05-05T01:07:35.239Z,10.20
2019-05-05T01:10:05.103Z,5.70
2019-05-05T01:12:34.893Z,5.97
2019-05-05T01:15:04.689Z,4.37
2019-05-05T01:17:34.582Z,3.93
2019-05-05T01:20:06.806Z,5.00
2019-05-05T01:22:35.137Z,7.63
2019-05-05T01:25:05.376Z,4.93
2019-05-05T01:27:34.866Z,6.27
2019-05-05T01:30:04.863Z,4.97
2019-05-05T01:32:37.803Z,5.33
2019-05-05T01:35:07.237Z,3.47
2019-05-05T01:37:41.281Z,5.53
2019-05-05T01:40:20.402Z,5.43
2019-05-05T01:42:49.270Z,5.20
2019-05-05T01:45:18.137Z,3.60
2019-05-05T01:47:47.015Z,4.80
2019-05-05T01:50:20.959Z,2.80
2019-05-05T01:52:47.106Z,3.70
2019-05-05T01:55:16.087Z,5.67
2019-05-05T01:57:45.217Z,5.83
2019-05-05T02:00:14.913Z,4.70
2019-05-05T02:02:44.860Z,8.03
2019-05-05T02:05:14.823Z,2.40
2019-05-05T02:07:44.871Z,4.60
2019-05-05T02:10:15.284Z,5.33
2019-05-05T02:12:44.816Z,7.37
2019-05-05T02:15:15.080Z,4.03
2019-05-05T02:17:44.684Z,3.43
2019-05-05T02:20:39.555Z,4.13
2019-05-05T02:23:09.355Z,3.30
2019-05-05T02:25:38.223Z,3.50
2019-05-05T02:28:07.236Z,5.13
2019-05-05T02:30:46.382Z,7.33
2019-05-05T02:33:15.685Z,4.90
2019-05-05T02:35:45.908Z,4.30
2019-05-05T02:38:15.819Z,4.53
2019-05-05T02:40:47.027Z,4.93
2019-05-05T02:43:16.655Z,3.87
2019-05-05T02:45:57.949Z,3.37
2019-05-05T02:48:28.386Z,7.07
2019-05-05T02:51:02.484Z,4.20
2019-05-05T02:53:34.883Z,2.77
2019-05-05T02:56:07.170Z,3.13
2019-05-05T02:58:38.872Z,5.17
2019-05-05T03:01:45.774Z,4.40
2019-05-05T03:04:14.809Z,6.67
2019-05-05T03:06:48.312Z,4.37
2019-05-05T03:09:18.857Z,6.20
2019-05-05T03:11:49.418Z,4.33
2019-05-05T03:14:23.549Z,4.03
2019-05-05T03:16:54.153Z,2.63
2019-05-05T03:19:24.914Z,5.73
2019-05-05T03:21:54.893Z,3.20
2019-05-05T03:24:23.833Z,2.73
2019-05-05T03:26:53.707Z,5.53
2019-05-05T03:29:24.345Z,6.70
2019-05-05T03:31:56.381Z,3.37
2019-05-05T03:34:24.369Z,3.80
2019-05-05T03:36:53.941Z,5.00
2019-05-05T03:39:27.766Z,4.20
2019-05-05T03:42:25.462Z,7.07
2019-05-05T03:45:04.283Z,2.90
2019-05-05T03:47:33.788Z,5.97
2019-05-05T03:50:04.338Z,3.97
2019-05-05T03:52:34.698Z,3.37
2019-05-05T03:55:04.350Z,4.30
2019-05-05T03:57:33.940Z,3.20
2019-05-05T04:00:04.356Z,3.30
2019-05-05T04:02:45.260Z,5.50
2019-05-05T04:05:45.960Z,3.70
2019-05-05T04:08:14.838Z,4.10
2019-05-05T04:10:44.397Z,4.27
2019-05-05T04:13:14.001Z,3.37
2019-05-05T04:15:45.090Z,4.20
2019-05-05T04:18:21.534Z,3.23
2019-05-05T04:20:50.811Z,5.60
2019-05-05T04:23:19.653Z,5.47
2019-05-05T04:25:48.445Z,3.37
2019-05-05T04:28:17.257Z,5.23
2019-05-05T04:30:46.041Z,4.97
2019-05-05T04:33:14.957Z,7.60
2019-05-05T04:35:44.572Z,4.90
2019-05-05T04:38:13.858Z,4.30
2019-05-05T04:40:43.567Z,3.97
2019-05-05T04:43:14.312Z,2.93
2019-05-05T04:45:43.613Z,3.53
2019-05-05T04:48:24.198Z,3.20
2019-05-05T04:50:59.101Z,4.57
2019-05-05T04:53:34.679Z,8.83
2019-05-05T04:56:04.322Z,5.30
2019-05-05T04:58:33.694Z,5.40
2019-05-05T05:01:04.550Z,8.40
2019-05-05T05:04:04.807Z,5.17
2019-05-05T05:06:43.608Z,9.33
2019-05-05T05:09:14.507Z,5.50
2019-05-05T05:11:44.309Z,3.00
2019-05-05T05:14:14.349Z,8.10
2019-05-05T05:16:43.761Z,4.73
2019-05-05T05:19:13.801Z,3.87
2019-05-05T05:21:58.049Z,4.20
2019-05-05T05:24:14.827Z,6.17
2019-05-05T05:26:44.269Z,4.50
2019-05-05T05:29:15.075Z,7.53
2019-05-05T05:31:44.444Z,5.93
2019-05-05T05:34:14.860Z,11.27
2019-05-05T05:36:44.390Z,2.70
2019-05-05T05:39:35.788Z,3.87
2019-05-05T05:42:04.689Z,5.33
2019-05-05T05:44:46.813Z,5.30
2019-05-05T05:47:24.453Z,2.83
2019-05-05T05:50:03.856Z,5.43
2019-05-05T05:52:34.400Z,4.33
2019-05-05T05:55:04.070Z,5.13
2019-05-05T05:57:34.579Z,3.03
2019-05-05T06:00:04.425Z,4.73
2019-05-05T06:02:33.571Z,6.03
2019-05-05T06:05:04.247Z,7.43
2019-05-05T06:07:33.616Z,5.07
2019-05-05T06:10:03.695Z,5.90
2019-05-05T06:12:33.688Z,3.50
2019-05-05T06:15:03.838Z,10.77
2019-05-05T06:17:34.376Z,4.30
2019-05-05T06:20:04.054Z,4.53
2019-05-05T06:22:34.399Z,5.50
2019-05-05T06:25:06.655Z,4.53
2019-05-05T06:27:34.402Z,5.77
2019-05-05T06:30:04.497Z,5.03
2019-05-05T06:32:34.300Z,4.70
2019-05-05T06:35:03.752Z,4.77
2019-05-05T06:37:34.257Z,3.13
2019-05-05T06:40:05.085Z,4.57
2019-05-05T06:42:40.029Z,4.40
2019-05-05T06:45:17.642Z,4.07
2019-05-05T06:47:46.437Z,2.83
2019-05-05T06:50:15.379Z,7.10
2019-05-05T06:52:46.946Z,3.23
2019-05-05T06:55:14.699Z,4.60
2019-05-05T06:57:44.411Z,5.90
2019-05-05T07:00:14.058Z,3.40
2019-05-05T07:02:44.423Z,4.50
2019-05-05T07:05:14.302Z,5.63
2019-05-05T07:07:43.601Z,3.37
2019-05-05T07:10:14.066Z,4.53
2019-05-05T07:12:43.943Z,6.53
2019-05-05T07:15:14.525Z,5.63
2019-05-05T07:17:44.254Z,5.23
2019-05-05T07:20:13.688Z,5.47
2019-05-05T07:22:55.732Z,5.03
2019-05-05T07:25:13.803Z,6.23
2019-05-05T07:27:44.402Z,7.03
2019-05-05T07:30:14.449Z,3.60
2019-05-05T07:32:44.306Z,2.83
2019-05-05T07:35:34.473Z,3.80
2019-05-05T07:38:04.475Z,5.90
2019-05-05T07:40:34.604Z,5.10
2019-05-05T07:43:04.503Z,2.90
2019-05-05T07:45:34.284Z,4.00
2019-05-05T07:48:04.851Z,5.40
2019-05-05T07:50:35.822Z,5.50
2019-05-05T07:53:13.931Z,5.13
2019-05-05T07:55:34.994Z,9.40
2019-05-05T07:58:04.416Z,5.23
2019-05-05T08:00:34.310Z,7.33
2019-05-05T08:03:03.826Z,6.73
2019-05-05T08:05:33.577Z,6.07
2019-05-05T08:08:04.428Z,4.70
2019-05-05T08:10:34.358Z,6.00
2019-05-05T08:13:04.656Z,5.67
2019-05-05T08:15:34.446Z,4.20
2019-05-05T08:18:15.788Z,6.47
2019-05-05T08:20:47.464Z,7.63
2019-05-05T08:23:32.803Z,6.47
2019-05-05T08:26:35.291Z,9.03
2019-05-05T08:29:23.853Z,3.93
2019-05-05T08:31:57.157Z,5.67
2019-05-05T08:34:25.985Z,3.30
2019-05-05T08:36:55.148Z,7.67
2019-05-05T08:39:24.371Z,4.93
2019-05-05T08:41:53.866Z,4.13
2019-05-05T08:44:23.683Z,4.53
2019-05-05T08:46:53.771Z,8.07
2019-05-05T08:49:24.429Z,4.43
2019-05-05T08:51:54.788Z,2.77
2019-05-05T08:54:23.869Z,2.40
2019-05-05T08:56:54.809Z,5.00
2019-05-05T08:59:24.214Z,6.47
2019-05-05T09:01:54.110Z,4.60
2019-05-05T09:04:24.663Z,2.50
2019-05-05T09:06:54.345Z,3.90
2019-05-05T09:09:24.155Z,3.60
2019-05-05T09:11:54.242Z,4.73
2019-05-05T09:14:24.078Z,4.47
2019-05-05T09:16:53.864Z,6.90
2019-05-05T09:19:24.108Z,3.23
2019-05-05T09:21:54.183Z,4.70
2019-05-05T09:24:35.290Z,6.70
2019-05-05T09:27:24.858Z,3.90
2019-05-05T09:29:54.672Z,2.67
2019-05-05T09:32:24.265Z,5.33
2019-05-05T09:34:54.052Z,3.73
2019-05-05T09:37:24.675Z,6.03
2019-05-05T09:39:54.217Z,4.37
2019-05-05T09:42:23.646Z,4.67
2019-05-05T09:44:54.151Z,4.20
2019-05-05T09:47:24.039Z,4.40
2019-05-05T09:49:54.933Z,5.03
2019-05-05T09:52:24.442Z,5.33
2019-05-05T09:54:54.430Z,3.83
2019-05-05T09:57:23.821Z,3.20
2019-05-05T09:59:54.682Z,6.40
2019-05-05T10:02:24.097Z,5.70
2019-05-05T10:04:54.653Z,3.37
2019-05-05T10:07:24.251Z,5.90
2019-05-05T10:09:54.288Z,3.10
2019-05-05T10:12:23.541Z,2.30
2019-05-05T10:14:54.241Z,4.13
2019-05-05T10:17:24.396Z,4.17
2019-05-05T10:19:54.674Z,6.73
2019-05-05T10:22:23.929Z,3.87
2019-05-05T10:24:57.579Z,9.47
2019-05-05T10:27:26.647Z,6.80
2019-05-05T10:29:55.419Z,5.03
2019-05-05T10:32:25.021Z,5.17
2019-05-05T10:35:04.555Z,5.93
2019-05-05T10:37:34.693Z,3.73
2019-05-05T10:40:04.330Z,7.23
2019-05-05T10:42:53.669Z,4.23
2019-05-05T10:45:24.409Z,5.23
2019-05-05T10:47:54.495Z,6.17
2019-05-05T10:50:24.671Z,4.70
2019-05-05T10:52:53.853Z,4.43
2019-05-05T10:55:23.922Z,8.60
2019-05-05T10:57:54.352Z,2.80
2019-05-05T11:00:44.134Z,3.43
2019-05-05T11:03:14.709Z,4.07
2019-05-05T11:05:44.955Z,4.77
2019-05-05T11:08:14.222Z,5.87
2019-05-05T11:10:44.983Z,5.27
2019-05-05T11:13:13.989Z,2.63
2019-05-05T11:15:44.268Z,3.57
2019-05-05T11:18:14.788Z,7.13
2019-05-05T11:20:44.780Z,4.90
2019-05-05T11:23:15.111Z,3.57
2019-05-05T11:25:45.813Z,2.83
2019-05-05T11:28:14.998Z,4.07
2019-05-05T11:30:45.224Z,6.53
2019-05-05T11:33:43.737Z,3.93
2019-05-05T11:36:34.681Z,3.57
2019-05-05T11:39:06.570Z,8.00
2019-05-05T11:41:35.829Z,2.60
2019-05-05T11:44:04.923Z,3.73
2019-05-05T11:46:33.988Z,6.20
2019-05-05T11:49:04.904Z,4.97
2019-05-05T11:51:34.264Z,6.90
2019-05-05T11:54:04.705Z,2.40
2019-05-05T11:56:34.300Z,4.93
2019-05-05T11:59:03.888Z,2.50
2019-05-05T12:01:33.233Z,5.03
2019-05-05T12:04:04.194Z,4.97
2019-05-05T12:06:34.014Z,2.37
2019-05-05T12:09:04.594Z,2.90
2019-05-05T12:11:34.490Z,2.53
2019-05-05T12:14:05.320Z,3.60
2019-05-05T12:16:34.666Z,2.10
2019-05-05T12:19:07.701Z,2.23
2019-05-05T12:21:36.737Z,2.23
2019-05-05T12:24:14.319Z,2.20
2019-05-05T12:26:56.640Z,5.30
2019-05-05T12:29:28.804Z,3.30
2019-05-05T12:31:57.617Z,7.27
2019-05-05T12:34:26.403Z,3.27
2019-05-05T12:36:55.167Z,2.23
2019-05-05T12:39:23.963Z,4.07
2019-05-05T12:41:54.240Z,2.80
2019-05-05T12:44:37.309Z,3.40
2019-05-05T12:47:24.411Z,2.90
2019-05-05T12:49:54.531Z,4.17
2019-05-05T12:52:23.862Z,3.50
2019-05-05T12:54:54.484Z,5.60
2019-05-05T12:57:24.157Z,4.17
2019-05-05T12:59:53.629Z,3.60
2019-05-05T13:02:23.518Z,4.00
2019-05-05T13:04:53.497Z,6.03
2019-05-05T13:07:24.277Z,2.43
2019-05-05T13:09:54.523Z,3.03
2019-05-05T13:12:24.018Z,2.40
2019-05-05T13:14:54.461Z,3.60
2019-05-05T13:17:24.501Z,3.57
2019-05-05T13:20:02.429Z,3.13
2019-05-05T13:22:47.903Z,3.30
2019-05-05T13:25:51.912Z,4.20
2019-05-05T13:28:09.620Z,3.67
2019-05-05T13:30:38.737Z,3.90
2019-05-05T13:33:07.507Z,3.53
2019-05-05T13:35:36.630Z,2.90
2019-05-05T13:38:05.720Z,5.13
2019-05-05T13:40:34.676Z,3.37
2019-05-05T13:43:04.313Z,4.00
2019-05-05T13:45:45.916Z,2.67
2019-05-05T13:48:14.999Z,3.60
2019-05-05T13:50:46.539Z,4.27
2019-05-05T13:53:16.073Z,2.60
2019-05-05T13:55:46.057Z,5.90
2019-05-05T13:58:15.060Z,4.17
2019-05-05T14:00:44.208Z,2.13
2019-05-05T14:03:13.365Z,6.37
2019-05-05T14:05:43.709Z,4.10
2019-05-05T14:08:14.744Z,3.80
2019-05-05T14:10:44.036Z,6.07
2019-05-05T14:13:12.808Z,2.10
2019-05-05T14:15:41.596Z,2.97
2019-05-05T14:18:10.648Z,2.50
2019-05-05T14:20:39.516Z,3.40
2019-05-05T14:23:08.293Z,3.73
2019-05-05T14:25:37.082Z,4.10
2019-05-05T14:28:06.271Z,7.37
2019-05-05T14:30:47.702Z,4.93
2019-05-05T14:33:19.811Z,2.03
2019-05-05T14:35:55.409Z,6.60
2019-05-05T14:38:34.012Z,3.63
2019-05-05T14:41:04.176Z,2.63
2019-05-05T14:43:34.507Z,2.80
2019-05-05T14:46:03.811Z,2.33
2019-05-05T14:48:34.030Z,2.97
2019-05-05T14:51:04.001Z,5.10
2019-05-05T14:53:34.821Z,3.37
2019-05-05T14:56:04.646Z,4.63
2019-05-05T14:58:33.616Z,6.17
2019-05-05T15:01:04.435Z,4.00
2019-05-05T15:03:33.680Z,9.83
2019-05-05T15:06:07.957Z,3.40
2019-05-05T15:08:43.917Z,4.53
2019-05-05T15:11:17.363Z,4.13
2019-05-05T15:13:46.127Z,5.70
2019-05-05T15:16:14.916Z,6.60
2019-05-05T15:18:43.689Z,4.87
2019-05-05T15:21:12.467Z,4.50
2019-05-05T15:23:43.501Z,5.90
2019-05-05T15:26:12.676Z,6.47
2019-05-05T15:28:41.627Z,3.37
2019-05-05T15:31:10.484Z,8.63
2019-05-05T15:33:39.577Z,12.67
2019-05-05T15:36:08.976Z,5.27
2019-05-05T15:38:37.763Z,12.87
2019-05-05T15:41:06.696Z,6.30
2019-05-05T15:43:35.533Z,9.43
2019-05-05T15:46:04.558Z,11.23
2019-05-05T15:48:33.694Z,10.67
2019-05-05T15:51:04.186Z,11.40
2019-05-05T15:53:33.174Z,11.17
2019-05-05T15:56:01.956Z,12.83
2019-05-05T15:58:31.658Z,10.83
2019-05-05T16:01:01.168Z,14.47
2019-05-05T16:03:30.013Z,15.47
2019-05-05T16:05:58.909Z,8.60
2019-05-05T16:08:28.037Z,16.97
2019-05-05T16:10:57.052Z,15.30
2019-05-05T16:13:26.090Z,11.27
2019-05-05T16:16:07.412Z,13.03
2019-05-05T16:18:47.509Z,11.33
2019-05-05T16:21:18.504Z,12.10
2019-05-05T16:23:50.544Z,9.53
2019-05-05T16:26:19.361Z,11.47
2019-05-05T16:28:48.742Z,11.20
2019-05-05T16:31:17.855Z,11.73
2019-05-05T16:33:48.660Z,12.80
2019-05-05T16:36:17.154Z,15.60
2019-05-05T16:38:46.200Z,10.50
2019-05-05T16:41:15.415Z,10.57
2019-05-05T16:43:44.481Z,12.33
2019-05-05T16:46:16.779Z,10.23
2019-05-05T16:48:44.048Z,11.07
2019-05-05T16:51:15.129Z,12.83
2019-05-05T16:53:44.419Z,13.00
2019-05-05T16:56:14.446Z,10.23
2019-05-05T16:58:45.056Z,15.37
2019-05-05T17:01:15.560Z,15.77
2019-05-05T17:03:45.826Z,14.77
2019-05-05T17:06:15.109Z,16.40
2019-05-05T17:08:44.533Z,16.93
2019-05-05T17:11:15.035Z,19.60
2019-05-05T17:13:52.199Z,12.23
2019-05-05T17:16:39.388Z,10.07
2019-05-05T17:19:14.090Z,14.53
2019-05-05T17:22:00.993Z,14.87
2019-05-05T17:24:29.847Z,14.93
2019-05-05T17:26:58.687Z,19.27
2019-05-05T17:29:27.607Z,12.30
2019-05-05T17:31:56.638Z,17.43
2019-05-05T17:34:25.756Z,12.40
2019-05-05T17:36:55.039Z,10.17
2019-05-05T17:39:26.208Z,13.90
2019-05-05T17:42:06.427Z,18.63
2019-05-05T17:44:46.075Z,13.00
2019-05-05T17:47:25.004Z,14.87
2019-05-05T17:50:28.060Z,14.93
2019-05-05T17:53:07.079Z,15.97
2019-05-05T17:55:37.684Z,11.13
2019-05-05T17:58:06.888Z,13.60
2019-05-05T18:00:43.885Z,10.07
2019-05-05T18:03:12.682Z,12.77
2019-05-05T18:06:09.802Z,12.33
2019-05-05T18:08:44.303Z,8.90
2019-05-05T18:11:18.056Z,12.77
2019-05-05T18:13:59.938Z,11.70
2019-05-05T18:16:29.088Z,12.60
2019-05-05T18:18:58.184Z,14.43
2019-05-05T18:21:31.740Z,9.80
2019-05-05T18:23:58.214Z,7.90
2019-05-05T18:26:27.564Z,13.13
2019-05-05T18:28:56.818Z,12.23
2019-05-05T18:31:25.591Z,10.10
2019-05-05T18:33:54.534Z,18.53
2019-05-05T18:36:23.432Z,11.03
2019-05-05T18:38:53.847Z,16.07
2019-05-05T18:41:48.185Z,11.90
2019-05-05T18:44:24.461Z,12.13
2019-05-05T18:47:17.307Z,14.20
2019-05-05T18:49:43.883Z,13.27
2019-05-05T18:52:13.857Z,13.27
2019-05-05T18:54:43.618Z,10.63
2019-05-05T18:57:12.677Z,12.97
2019-05-05T18:59:41.773Z,11.43
2019-05-05T19:02:45.311Z,10.77
2019-05-05T19:05:23.722Z,16.00
2019-05-05T19:08:18.309Z,10.33
2019-05-05T19:10:47.083Z,12.93
2019-05-05T19:13:15.881Z,10.20
2019-05-05T19:15:45.076Z,13.40
2019-05-05T19:18:14.109Z,11.70
2019-05-05T19:20:54.038Z,10.40
2019-05-05T19:23:22.738Z,12.83
2019-05-05T19:25:51.589Z,8.33
2019-05-05T19:28:20.444Z,14.67
2019-05-05T19:30:49.212Z,13.70
2019-05-05T19:33:18.064Z,10.80
2019-05-05T19:35:47.329Z,14.53
2019-05-05T19:38:16.436Z,15.37
2019-05-05T19:40:45.544Z,12.37
2019-05-05T19:43:14.716Z,13.13
2019-05-05T19:45:44.835Z,12.57
2019-05-05T19:48:14.949Z,11.37
2019-05-05T19:50:56.501Z,8.57
2019-05-05T19:53:25.944Z,11.07
2019-05-05T19:55:55.928Z,16.27
2019-05-05T19:58:24.859Z,10.13
2019-05-05T20:00:56.741Z,13.83
2019-05-05T20:03:25.888Z,14.47
2019-05-05T20:05:54.861Z,15.87
2019-05-05T20:08:24.139Z,13.03
2019-05-05T20:10:54.229Z,12.30
2019-05-05T20:13:23.836Z,12.77
2019-05-05T20:16:04.512Z,10.13
2019-05-05T20:18:34.238Z,11.17
2019-05-05T20:21:06.864Z,10.97
2019-05-05T20:23:34.263Z,10.20
2019-05-05T20:26:03.981Z,15.67
2019-05-05T20:28:33.883Z,7.90
2019-05-05T20:31:03.606Z,10.67
2019-05-05T20:33:44.970Z,14.20
2019-05-05T20:36:19.872Z,9.33
2019-05-05T20:38:50.531Z,16.90
2019-05-05T20:41:20.649Z,8.87
2019-05-05T20:43:49.665Z,10.70
2019-05-05T20:46:19.006Z,9.90
2019-05-05T20:48:48.624Z,11.90
2019-05-05T20:51:17.469Z,7.50
2019-05-05T20:53:49.096Z,8.50
2019-05-05T20:56:17.269Z,13.07
2019-05-05T20:58:46.136Z,10.27
2019-05-05T21:01:14.900Z,15.40
2019-05-05T21:03:44.728Z,12.97
2019-05-05T21:06:13.995Z,11.73
2019-05-05T21:08:44.039Z,10.37
2019-05-05T21:11:14.146Z,12.33
2019-05-05T21:13:45.082Z,10.83
2019-05-05T21:16:14.847Z,13.00
2019-05-05T21:18:44.157Z,13.93
2019-05-05T21:21:18.335Z,7.43
2019-05-05T21:23:54.576Z,11.13
2019-05-05T21:26:43.190Z,11.67
2019-05-05T21:29:13.923Z,10.77
2019-05-05T21:31:43.800Z,10.70
2019-05-05T21:34:13.948Z,10.20
2019-05-05T21:36:44.700Z,9.37
2019-05-05T21:39:14.989Z,12.40
2019-05-05T21:41:44.212Z,9.40
2019-05-05T21:44:14.667Z,14.00
2019-05-05T21:46:43.924Z,9.00
2019-05-05T21:49:13.625Z,12.13
2019-05-05T21:51:48.960Z,15.87
2019-05-05T21:54:35.672Z,8.77
2019-05-05T21:57:17.983Z,11.40
2019-05-05T21:59:55.521Z,12.37
2019-05-05T22:02:17.597Z,14.43
2019-05-05T22:04:46.545Z,14.00
2019-05-05T22:07:16.163Z,10.57
2019-05-05T22:09:44.953Z,9.63
2019-05-05T22:12:13.704Z,12.50
2019-05-05T22:14:44.003Z,10.17
2019-05-05T22:17:14.638Z,10.70
2019-05-05T22:19:54.221Z,14.13
2019-05-05T22:22:25.207Z,9.03
2019-05-05T22:24:54.316Z,17.07
2019-05-05T22:27:23.774Z,11.90
2019-05-05T22:29:55.313Z,10.07
2019-05-05T22:32:24.971Z,9.87
2019-05-05T22:34:53.899Z,11.70
2019-05-05T22:37:23.649Z,9.27
2019-05-05T22:39:54.194Z,8.90
2019-05-05T22:42:24.631Z,8.90
2019-05-05T22:44:53.593Z,15.97
2019-05-05T22:47:23.643Z,9.50
2019-05-05T22:49:53.924Z,17.27
2019-05-05T22:52:25.270Z,11.83
2019-05-05T22:54:53.374Z,9.57
2019-05-05T22:57:24.607Z,11.53
2019-05-05T22:59:54.109Z,9.40
2019-05-05T23:02:25.077Z,10.73
2019-05-05T23:05:09.578Z,10.13
2019-05-05T23:07:38.337Z,9.37
2019-05-05T23:10:07.747Z,9.80
2019-05-05T23:12:36.508Z,13.40
2019-05-05T23:15:07.710Z,11.47
2019-05-05T23:17:46.359Z,16.50
2019-05-05T23:21:18.172Z,10.80
2019-05-05T23:24:01.080Z,8.93
2019-05-05T23:26:35.669Z,9.07
2019-05-05T23:29:02.760Z,9.10
2019-05-05T23:31:33.575Z,9.37
2019-05-05T23:34:03.956Z,16.27
2019-05-05T23:36:33.990Z,14.40
2019-05-05T23:39:05.186Z,13.43
2019-05-05T23:41:34.889Z,11.40
2019-05-05T23:44:04.587Z,14.10
2019-05-05T23:46:34.866Z,16.60
2019-05-05T23:49:04.399Z,11.97
2019-05-05T23:51:34.715Z,12.93
2019-05-05T23:54:04.212Z,10.57
2019-05-05T23:56:34.952Z,12.90
2019-05-05T23:59:04.392Z,11.53
